Time;durP1;ratioP1;P1;durP2;ratioP2;P2;SDS_P1;SDS_P2;PMS_P1;PMS_P2;Temp;Humidity;BMP_temperature;BMP_pressure;BME280_temperature;BME280_humidity;BME280_pressure;Samples;Min_cycle;Max_cycle;Signal;HPM_P1;HPM_P2
2022/03/03 00:02:00;;;;;;;21.58;11.25;;;;;;;-0.98;96.09;94766.94;5112609;28;20053;-47
2022/03/03 00:04:28;;;;;;;14.98;7.57;;;;;;;-1.06;96.68;94766.94;5114450;28;20040;-48
2022/03/03 00:06:55;;;;;;;17.88;9.30;;;;;;;-0.99;96.80;94770.47;5109936;28;20104;-48
2022/03/03 00:09:22;;;;;;;19.85;10.35;;;;;;;-1.00;97.18;94768.84;5108144;28;20409;-47
2022/03/03 00:11:49;;;;;;;18.38;9.73;;;;;;;-1.03;97.41;94758.94;5107897;28;20455;-46
2022/03/03 00:14:15;;;;;;;22.45;10.15;;;;;;;-0.99;97.16;94760.22;5108296;28;20052;-47
2022/03/03 00:16:42;;;;;;;18.20;9.63;;;;;;;-0.99;97.66;94765.34;5112582;27;20423;-47
2022/03/03 00:19:09;;;;;;;17.48;9.70;;;;;;;-0.97;97.72;94762.63;5112257;27;20134;-47
2022/03/03 00:21:36;;;;;;;20.10;10.45;;;;;;;-1.01;98.18;94762.16;5112800;27;20051;-48
2022/03/03 00:24:03;;;;;;;22.13;11.50;;;;;;;-0.98;98.07;94766.94;5110423;27;20040;-46
2022/03/03 00:26:30;;;;;;;20.92;10.32;;;;;;;-0.98;97.89;94756.69;5111716;27;20112;-48
2022/03/03 00:28:56;;;;;;;20.23;9.60;;;;;;;-0.99;97.78;94767.91;5089957;28;20039;-47
2022/03/03 00:31:23;;;;;;;16.63;8.98;;;;;;;-0.96;97.62;94762.44;5111985;27;20043;-49
2022/03/03 00:33:50;;;;;;;20.63;9.88;;;;;;;-0.94;97.57;94756.38;5112073;27;20043;-46
2022/03/03 00:36:17;;;;;;;22.17;12.20;;;;;;;-0.97;98.33;94754.97;5112504;27;20056;-48
2022/03/03 00:38:44;;;;;;;21.40;9.93;;;;;;;-0.96;98.43;94754.78;5115355;27;20044;-49
2022/03/03 00:41:10;;;;;;;15.70;8.63;;;;;;;-0.94;98.30;94761.50;5113973;27;20044;-49
2022/03/03 00:43:37;;;;;;;22.83;12.18;;;;;;;-0.91;98.27;94761.19;5110798;27;20044;-48
2022/03/03 00:46:04;;;;;;;25.08;11.25;;;;;;;-0.85;98.26;94756.19;5112452;27;20039;-47
2022/03/03 00:48:31;;;;;;;15.55;9.18;;;;;;;-0.82;98.24;94762.78;5116865;27;20036;-47
2022/03/03 00:50:59;;;;;;;17.30;10.40;;;;;;;-0.86;98.27;94759.75;5115990;27;20051;-48
2022/03/03 00:53:26;;;;;;;18.38;9.52;;;;;;;-0.80;98.02;94758.28;5111728;27;20047;-49
2022/03/03 00:55:53;;;;;;;15.35;9.07;;;;;;;-0.87;98.52;94759.91;5113092;27;20079;-47
2022/03/03 00:58:20;;;;;;;22.70;13.73;;;;;;;-0.93;98.89;94747.78;5112715;27;20035;-49
2022/03/03 01:00:47;;;;;;;24.60;11.98;;;;;;;-0.90;99.17;94752.53;5113091;27;20043;-46
2022/03/03 01:03:14;;;;;;;30.10;12.05;;;;;;;-0.88;99.39;94755.72;5113172;27;20055;-48
2022/03/03 01:05:40;;;;;;;19.50;11.60;;;;;;;-0.92;99.58;94755.25;5112844;27;20047;-48
2022/03/03 01:08:10;;;;;;;19.70;10.93;;;;;;;-0.86;99.30;94752.06;5111168;27;20051;-51
2022/03/03 01:10:38;;;;;;;21.50;10.50;;;;;;;-0.90;99.72;94747.44;5111204;27;20433;-50
2022/03/03 01:13:06;;;;;;;16.52;10.30;;;;;;;-0.94;99.90;94735.94;5111546;27;20051;-50
2022/03/03 01:15:33;;;;;;;12.95;7.57;;;;;;;-0.98;100.00;94746.47;5110616;27;20043;-48
2022/03/03 01:18:00;;;;;;;25.40;12.35;;;;;;;-0.95;99.95;94740.25;5109860;27;20031;-47
2022/03/03 01:20:30;;;;;;;22.20;11.57;;;;;;;-0.94;100.00;94734.16;5111360;27;20040;-48
2022/03/03 01:22:57;;;;;;;23.90;11.80;;;;;;;-0.94;100.00;94733.38;5110097;27;20043;-52
2022/03/03 01:25:24;;;;;;;20.50;11.30;;;;;;;-1.02;100.00;94723.97;5110454;27;20047;-47
2022/03/03 01:27:51;;;;;;;19.83;11.02;;;;;;;-0.96;100.00;94734.31;5108689;27;20039;-50
2022/03/03 01:30:17;;;;;;;15.85;9.90;;;;;;;-0.97;100.00;94737.06;5112186;27;20444;-46
2022/03/03 01:32:44;;;;;;;22.63;11.57;;;;;;;-1.02;100.00;94734.97;5110975;27;20100;-47
2022/03/03 01:35:11;;;;;;;19.15;10.32;;;;;;;-1.04;100.00;94719.00;5111223;27;20051;-47
2022/03/03 01:37:38;;;;;;;20.52;10.35;;;;;;;-1.03;100.00;94728.25;5111305;27;20036;-47
2022/03/03 01:40:06;;;;;;;18.98;11.25;;;;;;;-1.13;100.00;94709.75;5110990;27;20039;-48
2022/03/03 01:42:33;;;;;;;19.98;11.60;;;;;;;-1.13;100.00;94714.88;5110723;27;20044;-46
2022/03/03 01:45:00;;;;;;;13.85;7.65;;;;;;;-1.05;100.00;94722.50;5109327;27;20039;-48
2022/03/03 01:47:28;;;;;;;17.83;8.93;;;;;;;-1.09;100.00;94713.56;5111391;27;20051;-48
2022/03/03 01:49:57;;;;;;;14.45;9.25;;;;;;;-1.11;100.00;94715.50;5111121;27;20096;-48
2022/03/03 01:52:25;;;;;;;13.88;8.63;;;;;;;-1.08;100.00;94715.19;5110550;27;20055;-48
2022/03/03 01:54:52;;;;;;;14.32;8.20;;;;;;;-1.06;100.00;94713.25;5110911;27;20436;-47
2022/03/03 01:57:20;;;;;;;13.43;6.88;;;;;;;-1.06;100.00;94713.25;5110642;27;20059;-48
2022/03/03 01:59:47;;;;;;;20.67;10.52;;;;;;;-1.06;100.00;94713.25;5111157;27;20047;-47
2022/03/03 02:02:14;;;;;;;22.92;10.25;;;;;;;-1.03;100.00;94707.81;5110439;27;20574;-49
2022/03/03 02:04:42;;;;;;;19.13;8.63;;;;;;;-1.03;100.00;94707.81;5110523;27;20051;-47
2022/03/03 02:07:10;;;;;;;20.08;10.48;;;;;;;-1.02;100.00;94704.31;5110895;27;20039;-47
2022/03/03 02:09:39;;;;;;;19.98;10.18;;;;;;;-0.99;100.00;94701.44;5110891;27;20073;-48
2022/03/03 02:12:06;;;;;;;31.85;12.70;;;;;;;-1.06;100.00;94692.81;5114683;27;20071;-47
2022/03/03 02:14:44;;;;;;;18.10;10.63;;;;;;;-0.97;100.00;94712.28;5109173;27;20039;-47
2022/03/03 02:17:12;;;;;;;16.52;9.85;;;;;;;-0.91;100.00;94704.94;5110623;27;20039;-51
2022/03/03 02:19:39;;;;;;;15.45;9.35;;;;;;;-0.92;100.00;94704.13;5110127;27;20573;-49
2022/03/03 02:22:05;;;;;;;14.40;8.63;;;;;;;-1.03;100.00;94697.59;5109388;27;20055;-47
2022/03/03 02:24:32;;;;;;;21.83;12.00;;;;;;;-0.97;100.00;94696.94;5112131;27;20092;-47
2022/03/03 02:27:00;;;;;;;21.63;11.35;;;;;;;-0.92;100.00;94703.31;5109534;27;20046;-50
2022/03/03 02:29:30;;;;;;;17.17;9.77;;;;;;;-0.92;100.00;94703.31;5110676;27;20047;-47
2022/03/03 02:31:58;;;;;;;20.90;11.15;;;;;;;-0.93;100.00;94701.75;5108696;27;20144;-49
2022/03/03 02:34:25;;;;;;;23.08;11.23;;;;;;;-0.89;100.00;94708.13;5109749;27;20049;-50
2022/03/03 02:36:52;;;;;;;23.40;11.18;;;;;;;-0.98;100.00;94695.34;5087258;27;20737;-49
2022/03/03 02:39:19;;;;;;;24.45;11.38;;;;;;;-0.90;100.00;94706.50;5110923;27;20046;-46
2022/03/03 02:41:45;;;;;;;27.13;10.10;;;;;;;-0.91;100.00;94704.94;5109513;27;20092;-46
2022/03/03 02:44:12;;;;;;;20.42;11.45;;;;;;;-0.88;100.00;94707.16;5107644;27;20047;-47
2022/03/03 02:46:39;;;;;;;18.33;10.70;;;;;;;-0.88;100.00;94702.84;5109738;27;20093;-48
2022/03/03 02:49:06;;;;;;;26.50;14.20;;;;;;;-0.92;100.00;94709.22;5111106;27;20031;-48
2022/03/03 02:51:33;;;;;;;18.73;10.48;;;;;;;-0.87;100.00;94711.31;5109703;27;20489;-50
2022/03/03 02:54:00;;;;;;;20.75;10.88;;;;;;;-0.89;100.00;94708.13;5088515;27;20043;-49
2022/03/03 02:56:27;;;;;;;19.23;9.15;;;;;;;-0.88;100.00;94702.03;5109790;27;20067;-49
2022/03/03 02:58:54;;;;;;;25.50;14.00;;;;;;;-0.88;100.00;94700.28;5109232;27;20043;-47
2022/03/03 03:01:21;;;;;;;21.23;9.90;;;;;;;-0.90;100.00;94701.41;5112552;27;20074;-47
2022/03/03 03:03:48;;;;;;;16.90;8.68;;;;;;;-0.98;100.00;94694.56;5107850;27;20428;-52
2022/03/03 03:06:15;;;;;;;16.55;9.68;;;;;;;-0.96;100.00;94701.09;5108764;27;20462;-48
2022/03/03 03:08:42;;;;;;;18.35;9.30;;;;;;;-1.02;100.00;94694.06;5109152;28;20047;-51
2022/03/03 03:11:09;;;;;;;23.63;11.63;;;;;;;-0.97;100.00;94701.28;5109152;28;20051;-48
2022/03/03 03:13:36;;;;;;;22.08;10.98;;;;;;;-1.00;100.00;94707.50;5087007;28;20043;-47
2022/03/03 03:16:03;;;;;;;19.63;11.07;;;;;;;-1.00;100.00;94707.50;5108550;28;20435;-47
2022/03/03 03:18:30;;;;;;;18.90;10.40;;;;;;;-1.00;100.00;94707.50;5107059;28;20146;-49
2022/03/03 03:20:57;;;;;;;25.17;12.70;;;;;;;-1.03;100.00;94702.69;5108256;28;20062;-48
2022/03/03 03:23:25;;;;;;;18.70;8.98;;;;;;;-1.14;100.00;94690.25;5108799;28;20047;-47
2022/03/03 03:25:53;;;;;;;16.08;8.95;;;;;;;-1.02;100.00;94713.75;5108551;28;20058;-47
2022/03/03 03:28:21;;;;;;;21.55;12.30;;;;;;;-1.05;100.00;94704.63;5108302;28;20052;-47
2022/03/03 03:30:49;;;;;;;15.75;6.75;;;;;;;-1.15;100.00;94693.78;5108451;28;20092;-48
2022/03/03 03:33:15;;;;;;;21.92;9.95;;;;;;;-1.07;100.00;94701.44;5110491;28;20039;-46
2022/03/03 03:35:42;;;;;;;25.20;11.57;;;;;;;-1.05;100.00;94704.63;5108905;28;20055;-49
2022/03/03 03:38:09;;;;;;;15.40;7.70;;;;;;;-1.07;100.00;94696.31;5108745;28;20039;-48
2022/03/03 03:40:36;;;;;;;14.88;9.98;;;;;;;-1.06;100.00;94700.47;5110724;28;20050;-48
2022/03/03 03:43:03;;;;;;;23.75;11.15;;;;;;;-1.02;100.00;94706.84;5109199;28;20051;-51
2022/03/03 03:45:31;;;;;;;15.18;8.43;;;;;;;-1.08;100.00;94699.84;5089255;28;20062;-47
2022/03/03 03:47:58;;;;;;;21.63;11.02;;;;;;;-1.07;100.00;94711.66;5108506;28;20039;-47
2022/03/03 03:50:25;;;;;;;23.98;11.55;;;;;;;-1.07;100.00;94706.53;5110495;27;20043;-47
2022/03/03 03:52:52;;;;;;;20.35;10.70;;;;;;;-1.08;100.00;94694.75;5112620;27;20092;-47
2022/03/03 03:55:19;;;;;;;25.38;11.70;;;;;;;-1.06;100.00;94697.94;5112162;27;20587;-47
2022/03/03 03:57:46;;;;;;;25.38;13.90;;;;;;;-1.02;100.00;94699.19;5112491;27;20043;-47
2022/03/03 04:00:14;;;;;;;21.13;11.73;;;;;;;-1.02;100.00;94709.41;5112104;27;20052;-49
2022/03/03 04:02:42;;;;;;;22.30;10.38;;;;;;;-1.05;100.00;94704.63;5114587;27;20043;-47
2022/03/03 04:05:10;;;;;;;22.48;11.90;;;;;;;-1.03;100.00;94702.69;5112775;27;20889;-47
2022/03/03 04:07:37;;;;;;;16.98;8.98;;;;;;;-1.07;100.00;94704.00;5112412;27;20428;-47
2022/03/03 04:10:04;;;;;;;21.98;11.15;;;;;;;-1.07;100.00;94696.31;5113878;27;20062;-46
2022/03/03 04:12:31;;;;;;;24.05;12.00;;;;;;;-0.98;100.00;94694.56;5111693;27;20051;-49
2022/03/03 04:14:58;;;;;;;19.58;10.05;;;;;;;-1.03;100.00;94684.81;5113334;27;20086;-47
2022/03/03 04:17:25;;;;;;;21.55;10.38;;;;;;;-1.01;100.00;94685.47;5110448;27;20052;-50
2022/03/03 04:19:52;;;;;;;18.15;10.43;;;;;;;-0.99;100.00;94688.66;5112018;27;20054;-49
2022/03/03 04:22:19;;;;;;;21.00;12.95;;;;;;;-1.03;100.00;94705.25;5111734;27;20122;-47
2022/03/03 04:24:46;;;;;;;20.13;10.35;;;;;;;-1.01;100.00;94710.19;5112446;27;20067;-48
2022/03/03 04:27:13;;;;;;;22.67;11.45;;;;;;;-1.05;100.00;94704.63;5112386;27;20050;-46
2022/03/03 04:29:40;;;;;;;15.45;8.52;;;;;;;-1.09;100.00;94703.34;5111428;27;20104;-48
2022/03/03 04:32:07;;;;;;;20.80;8.95;;;;;;;-1.09;100.00;94703.34;5110936;27;20036;-47
2022/03/03 04:34:33;;;;;;;22.65;11.63;;;;;;;-1.06;100.00;94697.94;5111558;27;20048;-51
2022/03/03 04:37:01;;;;;;;25.17;12.18;;;;;;;-1.06;100.00;94694.56;5114774;27;20056;-50
2022/03/03 04:39:28;;;;;;;15.98;8.95;;;;;;;-1.14;100.00;94680.03;5110541;27;20064;-51
2022/03/03 04:41:54;;;;;;;16.23;8.82;;;;;;;-1.06;100.00;94666.44;5111867;27;20047;-47
2022/03/03 04:44:21;;;;;;;19.60;10.75;;;;;;;-1.02;100.00;94673.63;5109452;27;20112;-47
2022/03/03 04:46:48;;;;;;;15.75;8.00;;;;;;;-1.07;100.00;94696.31;5112143;27;20432;-47
2022/03/03 04:49:15;;;;;;;20.00;10.13;;;;;;;-1.08;100.00;94688.81;5113507;27;20040;-47
2022/03/03 04:51:42;;;;;;;21.75;12.07;;;;;;;-1.12;100.00;94703.66;5110902;27;20054;-47
2022/03/03 04:54:09;;;;;;;20.83;10.07;;;;;;;-1.16;100.00;94692.19;5110165;27;20044;-46
2022/03/03 04:56:38;;;;;;;25.52;11.68;;;;;;;-1.14;100.00;94690.25;5110336;27;20059;-48
2022/03/03 04:59:05;;;;;;;34.28;15.25;;;;;;;-1.12;100.00;94693.44;5111770;27;20066;-47
2022/03/03 05:01:32;;;;;;;29.73;14.40;;;;;;;-1.12;100.00;94683.22;5112784;27;20535;-49
2022/03/03 05:03:59;;;;;;;50.10;22.08;;;;;;;-1.06;100.00;94687.69;5110965;27;20113;-47
2022/03/03 05:06:26;;;;;;;38.03;18.13;;;;;;;-1.01;100.00;94685.47;5111137;27;20048;-52
2022/03/03 05:08:53;;;;;;;21.60;12.18;;;;;;;-1.04;100.00;94690.88;5114409;27;20048;-48
2022/03/03 05:11:20;;;;;;;13.27;8.10;;;;;;;-1.12;100.00;94690.88;5109277;27;20036;-48
2022/03/03 05:13:47;;;;;;;20.73;10.35;;;;;;;-1.11;100.00;94689.16;5115825;27;20055;-47
2022/03/03 05:16:14;;;;;;;18.15;12.27;;;;;;;-1.08;100.00;94692.19;5115581;27;20047;-46
2022/03/03 05:18:41;;;;;;;21.23;10.77;;;;;;;-1.08;100.00;94693.91;5110066;27;20576;-48
2022/03/03 05:21:08;;;;;;;20.77;9.45;;;;;;;-1.12;100.00;94698.56;5111056;27;20409;-48
2022/03/03 05:23:35;;;;;;;11.25;6.60;;;;;;;-1.17;100.00;94695.69;5110346;27;20050;-49
2022/03/03 05:26:02;;;;;;;20.48;9.35;;;;;;;-1.25;100.00;94688.84;5110502;27;20776;-47
2022/03/03 05:28:29;;;;;;;12.98;7.00;;;;;;;-1.25;100.00;94698.25;5110546;27;20044;-46
2022/03/03 05:30:55;;;;;;;20.90;10.50;;;;;;;-1.43;100.00;94675.44;5110512;27;20032;-47
2022/03/03 05:33:22;;;;;;;19.40;10.50;;;;;;;-1.30;100.00;94701.28;5111123;27;20096;-48
2022/03/03 05:35:57;;;;;;;20.05;11.73;;;;;;;-1.30;100.00;94700.50;5111838;27;20124;-49
2022/03/03 05:38:27;;;;;;;;;;;;;;;-1.36;100.00;94702.72;5111232;27;20038;-48
2022/03/03 05:40:54;;;;;;;26.35;9.90;;;;;;;-1.49;100.00;94706.75;5109768;27;19924;-48
2022/03/03 05:43:21;;;;;;;24.83;12.75;;;;;;;-1.45;100.00;94705.47;5110751;27;20108;-47
2022/03/03 05:45:47;;;;;;;17.65;9.52;;;;;;;-1.49;100.00;94702.41;5109067;27;20051;-48
2022/03/03 05:48:17;;;;;;;20.75;7.50;;;;;;;-1.50;100.00;94713.59;5110410;27;20039;-47
2022/03/03 05:50:43;;;;;;;19.52;10.25;;;;;;;-1.49;100.00;94707.53;5110223;27;20478;-47
2022/03/03 05:53:10;;;;;;;17.80;9.25;;;;;;;-1.60;100.00;94679.75;5109586;27;20044;-46
2022/03/03 05:55:46;;;;;;;26.25;13.05;;;;;;;-1.46;100.00;94701.28;5110180;27;20050;-49
2022/03/03 05:58:19;;;;;;;16.73;7.20;;;;;;;-1.46;100.00;94704.66;5113328;27;20039;-47
2022/03/03 06:00:48;;;;;;;25.40;12.45;;;;;;;-1.53;100.00;94685.81;5110821;27;20103;-47
2022/03/03 06:03:17;;;;;;;28.23;14.35;;;;;;;-1.38;100.00;94704.66;5112666;27;20051;-47
2022/03/03 06:05:53;;;;;;;18.25;9.57;;;;;;;-1.31;100.00;94714.25;5109750;27;20046;-47
2022/03/03 06:08:23;;;;;;;25.70;11.27;;;;;;;-1.27;100.00;94707.84;5113111;27;20050;-47
2022/03/03 06:10:52;;;;;;;34.83;13.07;;;;;;;-1.25;100.00;94705.94;5110221;27;20406;-50
2022/03/03 06:13:28;;;;;;;23.08;11.35;;;;;;;-1.20;100.00;94716.47;5109137;27;20461;-47
2022/03/03 06:15:54;;;;;;;26.33;11.63;;;;;;;-1.23;100.00;94706.56;5110163;27;20043;-48
2022/03/03 06:18:26;;;;;;;19.48;10.57;;;;;;;-1.21;100.00;94709.75;5109747;27;20059;-48
2022/03/03 06:20:54;;;;;;;24.40;9.93;;;;;;;-1.11;100.00;94720.63;5108939;27;20056;-50
2022/03/03 06:23:21;;;;;;;26.38;12.68;;;;;;;-1.11;100.00;94715.50;5108513;27;20138;-47
2022/03/03 06:26:04;;;;;;;18.33;11.63;;;;;;;-1.07;100.00;94711.66;5108554;27;20058;-49
2022/03/03 06:28:32;;;;;;;18.90;10.55;;;;;;;-0.99;100.00;94714.22;5106427;27;20047;-47
2022/03/03 06:31:00;;;;;;;23.02;9.55;;;;;;;-0.91;100.00;94704.94;5110404;27;20051;-47
2022/03/03 06:33:27;;;;;;;23.70;11.30;;;;;;;-0.85;100.00;94711.94;5109352;27;20039;-48
2022/03/03 06:35:55;;;;;;;20.35;11.80;;;;;;;-0.83;100.00;94712.56;5107778;28;20078;-47
2022/03/03 06:38:22;;;;;;;26.17;13.65;;;;;;;-0.78;100.00;94718.00;5108177;27;20512;-47
2022/03/03 06:40:49;;;;;;;24.55;11.43;;;;;;;-0.79;100.00;94713.88;5106892;27;20516;-46
2022/03/03 06:43:16;;;;;;;21.65;12.20;;;;;;;-0.85;100.00;94709.38;5107138;27;20455;-46
2022/03/03 06:45:43;;;;;;;29.20;10.55;;;;;;;-0.81;100.00;94716.56;5111932;27;20035;-48
2022/03/03 06:48:10;;;;;;;16.25;9.50;;;;;;;-0.81;100.00;94710.66;5089192;28;20132;-47
2022/03/03 06:50:40;;;;;;;26.13;11.55;;;;;;;-0.80;100.00;94717.38;5107795;27;20040;-47
2022/03/03 06:53:07;;;;;;;26.00;10.80;;;;;;;-0.74;100.00;94721.81;5105583;27;20047;-50
2022/03/03 06:55:36;;;;;;;22.08;11.48;;;;;;;-0.83;100.00;94702.34;5109119;27;20051;-50
2022/03/03 06:58:03;;;;;;;14.85;9.52;;;;;;;-0.65;100.00;94725.16;5104542;28;20105;-48
2022/03/03 07:00:34;;;;;;;17.33;8.40;;;;;;;-0.62;100.00;94725.63;5103703;28;20397;-50
2022/03/03 07:03:02;;;;;;;18.67;9.80;;;;;;;-0.62;100.00;94710.28;5098267;28;20058;-48
2022/03/03 07:05:30;;;;;;;23.52;10.27;;;;;;;-0.72;100.00;94711.44;5101124;27;20131;-47
2022/03/03 07:07:58;;;;;;;19.05;10.27;;;;;;;-0.60;100.00;94728.81;5100490;27;20073;-49
2022/03/03 07:10:25;;;;;;;26.65;13.75;;;;;;;-0.60;100.00;94728.03;5098408;28;20055;-47
2022/03/03 07:12:54;;;;;;;21.38;10.02;;;;;;;-0.54;100.00;94722.28;5100213;28;20052;-47
2022/03/03 07:15:23;;;;;;;15.20;8.20;;;;;;;-0.48;100.00;94731.03;5100096;28;20048;-47
2022/03/03 07:17:53;;;;;;;21.63;12.95;;;;;;;-0.45;100.00;94731.50;5101197;28;20048;-47
2022/03/03 07:20:49;;;;;;;25.88;12.90;;;;;;;-0.41;100.00;94726.88;5101562;28;20032;-47
2022/03/03 07:23:36;;;;;;;19.08;9.75;;;;;;;-0.32;100.00;94725.88;5091567;28;20052;-47
2022/03/03 07:26:05;;;;;;;17.85;8.60;;;;;;;-0.34;100.00;94717.56;5104923;27;20043;-51
2022/03/03 07:28:34;;;;;;;20.77;9.95;;;;;;;-0.26;100.00;94735.44;5109505;27;20035;-47
2022/03/03 07:31:03;;;;;;;14.60;8.82;;;;;;;-0.23;100.00;94730.00;5116007;27;20043;-46
2022/03/03 07:33:48;;;;;;;19.83;11.25;;;;;;;-0.23;100.00;94730.00;5108286;27;20051;-46
2022/03/03 07:36:24;;;;;;;18.75;10.05;;;;;;;-0.24;100.00;94723.25;5108386;27;20133;-47
2022/03/03 07:39:00;;;;;;;13.23;9.18;;;;;;;-0.20;100.00;94732.22;5109564;27;20039;-48
2022/03/03 07:41:28;;;;;;;22.35;10.15;;;;;;;-0.23;100.00;94714.63;5107960;27;20429;-48
2022/03/03 07:43:57;;;;;;;17.15;9.63;;;;;;;-0.24;100.00;94727.59;5110310;27;20039;-47
2022/03/03 07:46:25;;;;;;;21.40;9.40;;;;;;;-0.26;100.00;94727.75;5105700;27;20150;-47
2022/03/03 07:48:53;;;;;;;14.57;9.15;;;;;;;-0.23;100.00;94714.63;5110174;27;20047;-48
2022/03/03 07:51:21;;;;;;;20.42;9.70;;;;;;;-0.13;100.00;94728.97;5109055;27;20501;-48
2022/03/03 07:53:49;;;;;;;24.13;11.68;;;;;;;-0.07;100.00;94721.44;5103415;27;20057;-52
2022/03/03 07:56:25;;;;;;;20.13;8.88;;;;;;;-0.01;100.00;94730.22;5113953;27;20495;-47
2022/03/03 07:58:58;;;;;;;21.38;9.73;;;;;;;0.09;100.00;94738.50;5111173;27;20032;-49
2022/03/03 08:01:26;;;;;;;21.98;10.60;;;;;;;0.12;100.00;94740.69;5108060;27;20048;-47
2022/03/03 08:03:55;;;;;;;18.50;8.93;;;;;;;0.14;100.00;94733.63;5111735;27;20126;-49
2022/03/03 08:06:23;;;;;;;21.85;9.98;;;;;;;0.21;99.72;94731.22;5109354;27;20059;-47
2022/03/03 08:08:54;;;;;;;18.83;9.43;;;;;;;0.27;100.00;94729.72;5108923;27;20051;-48
2022/03/03 08:11:24;;;;;;;28.90;13.40;;;;;;;0.37;100.00;94735.44;5109188;27;20155;-47
2022/03/03 08:13:52;;;;;;;24.80;12.93;;;;;;;0.40;99.13;94735.13;5107756;27;20783;-47
2022/03/03 08:16:19;;;;;;;15.30;6.97;;;;;;;0.41;97.77;94731.56;5105577;27;20051;-48
2022/03/03 08:18:47;;;;;;;20.42;9.88;;;;;;;0.42;97.13;94728.03;5112299;27;20052;-47
2022/03/03 08:21:16;;;;;;;26.25;10.38;;;;;;;0.44;97.04;94728.66;5106062;27;20060;-47
2022/03/03 08:23:43;;;;;;;38.90;16.25;;;;;;;0.48;97.36;94731.69;5089572;27;20067;-49
2022/03/03 08:26:12;;;;;;;32.20;14.98;;;;;;;0.57;97.94;94736.56;5108470;27;20047;-47
2022/03/03 08:28:42;;;;;;;28.10;13.23;;;;;;;0.59;96.15;94727.94;5108212;27;20051;-46
2022/03/03 08:31:16;;;;;;;34.03;16.83;;;;;;;0.64;96.66;94725.66;5105903;27;20051;-47
2022/03/03 08:33:53;;;;;;;27.58;12.13;;;;;;;0.73;95.35;94729.75;5106454;27;20082;-49
2022/03/03 08:36:48;;;;;;;19.13;8.35;;;;;;;0.79;94.13;94734.16;5106029;27;20580;-49
2022/03/03 08:39:18;;;;;;;21.38;8.50;;;;;;;0.78;93.38;94740.28;5106576;27;20504;-46
2022/03/03 08:41:45;;;;;;;18.23;9.68;;;;;;;0.83;93.73;94738.00;5106061;27;20565;-47
2022/03/03 08:44:34;;;;;;;26.63;11.60;;;;;;;0.86;93.60;94719.69;5088971;27;20043;-48
2022/03/03 08:47:03;;;;;;;19.13;7.13;;;;;;;0.90;92.86;94732.97;5107772;27;20051;-47
2022/03/03 08:49:39;;;;;;;16.65;8.60;;;;;;;0.89;91.67;94734.75;5106725;27;20595;-47
2022/03/03 08:52:08;;;;;;;21.27;8.90;;;;;;;0.94;92.61;94732.47;5109191;27;20122;-46
2022/03/03 08:54:34;;;;;;;15.50;7.47;;;;;;;0.93;90.45;94724.94;5114865;27;20140;-50
2022/03/03 08:57:01;;;;;;;21.55;11.00;;;;;;;1.00;90.81;94725.03;5112802;27;20497;-47
2022/03/03 08:59:28;;;;;;;19.65;8.70;;;;;;;1.03;90.16;94728.06;5114153;27;20076;-46
2022/03/03 09:01:56;;;;;;;18.15;9.45;;;;;;;1.09;91.77;94729.91;5107574;27;20043;-47
2022/03/03 09:04:23;;;;;;;21.02;7.82;;;;;;;1.23;91.60;94733.50;5108621;27;20108;-47
2022/03/03 09:06:50;;;;;;;32.47;10.45;;;;;;;1.36;92.24;94716.69;5110273;27;20548;-47
2022/03/03 09:09:17;;;;;;;23.15;11.77;;;;;;;1.46;90.87;94719.78;5110875;27;20079;-50
2022/03/03 09:11:44;;;;;;;24.48;12.13;;;;;;;1.59;89.33;94725.09;5109192;27;20122;-47
2022/03/03 09:14:11;;;;;;;22.10;10.63;;;;;;;1.78;89.19;94726.31;5111881;27;20124;-47
2022/03/03 09:16:38;;;;;;;25.90;13.32;;;;;;;1.83;89.22;94700.91;5106292;27;20040;-47
2022/03/03 09:19:07;;;;;;;17.73;9.85;;;;;;;1.97;87.31;94731.88;5083820;28;20039;-47
2022/03/03 09:21:34;;;;;;;25.23;12.13;;;;;;;1.82;86.10;94708.78;5107274;27;20512;-48
2022/03/03 09:24:01;;;;;;;15.10;8.38;;;;;;;1.90;85.92;94711.25;5103423;27;20051;-48
2022/03/03 09:26:28;;;;;;;16.67;9.50;;;;;;;2.04;86.78;94713.00;5109010;27;20043;-49
2022/03/03 09:28:54;;;;;;;15.85;8.48;;;;;;;2.06;84.80;94711.03;5110017;27;20711;-47
2022/03/03 09:31:21;;;;;;;19.00;10.00;;;;;;;2.05;84.10;94727.44;5105598;27;20051;-48
2022/03/03 09:33:50;;;;;;;23.02;9.85;;;;;;;2.20;83.88;94722.28;5111643;27;20043;-48
2022/03/03 09:36:18;;;;;;;23.67;10.43;;;;;;;2.14;84.64;94697.28;5110550;27;20051;-50
2022/03/03 09:38:45;;;;;;;15.40;8.27;;;;;;;2.36;81.27;94721.25;5102337;27;20449;-48
2022/03/03 09:41:15;;;;;;;17.30;9.43;;;;;;;2.30;79.53;94696.25;5102974;27;20039;-48
2022/03/03 09:43:44;;;;;;;12.50;6.65;;;;;;;2.63;79.73;94711.22;5105440;27;20416;-47
2022/03/03 09:46:12;;;;;;;14.93;7.20;;;;;;;2.74;78.31;94708.16;5107755;27;20047;-48
2022/03/03 09:48:39;;;;;;;18.15;9.57;;;;;;;3.01;77.27;94708.38;5107484;27;20048;-47
2022/03/03 09:51:06;;;;;;;16.30;8.85;;;;;;;3.01;76.50;94708.38;5108525;27;20031;-52
2022/03/03 09:53:33;;;;;;;20.92;10.23;;;;;;;2.99;77.43;94710.31;5107329;27;20051;-47
2022/03/03 09:56:00;;;;;;;19.67;8.23;;;;;;;3.02;77.09;94709.94;5106227;27;20078;-50
2022/03/03 09:58:27;;;;;;;19.27;9.93;;;;;;;3.05;75.30;94704.44;5109207;27;20547;-47
2022/03/03 10:00:56;;;;;;;13.55;7.65;;;;;;;2.87;74.80;94726.25;5108629;27;20083;-49
2022/03/03 10:03:31;;;;;;;18.13;10.07;;;;;;;2.68;76.53;94708.88;5104709;27;20142;-47
2022/03/03 10:06:00;;;;;;;11.25;5.82;;;;;;;2.61;75.66;94710.59;5108052;27;20050;-47
2022/03/03 10:08:29;;;;;;;14.23;8.23;;;;;;;2.58;75.20;94703.28;5101955;27;20048;-48
2022/03/03 10:11:01;;;;;;;21.48;8.45;;;;;;;2.55;76.40;94703.63;5108052;27;20510;-47
2022/03/03 10:13:50;;;;;;;17.92;6.75;;;;;;;2.48;77.52;94704.38;5107313;27;20047;-48
2022/03/03 10:16:29;;;;;;;14.52;8.27;;;;;;;2.35;77.25;94698.31;5103982;27;20735;-52
2022/03/03 10:19:04;;;;;;;12.73;6.50;;;;;;;2.32;77.19;94694.31;5101184;27;20039;-52
2022/03/03 10:21:33;;;;;;;22.15;11.25;;;;;;;2.35;77.77;94699.09;5105124;27;20478;-51
2022/03/03 10:24:15;;;;;;;14.48;9.27;;;;;;;2.33;78.33;94701.03;5106936;27;20119;-51
2022/03/03 10:26:44;;;;;;;18.50;7.93;;;;;;;2.31;76.93;94697.09;5107260;27;20055;-49
2022/03/03 10:29:21;;;;;;;15.32;8.23;;;;;;;2.33;77.52;94701.03;5110103;27;20036;-47
2022/03/03 10:31:51;;;;;;;15.60;6.20;;;;;;;2.32;77.33;94704.59;5105543;27;20137;-51
2022/03/03 10:34:32;;;;;;;17.60;7.47;;;;;;;2.25;77.25;94693.44;5103119;27;20435;-47
2022/03/03 10:37:10;;;;;;;20.17;9.90;;;;;;;2.25;77.49;94693.44;5105960;27;20048;-50
2022/03/03 10:39:48;;;;;;;12.13;6.60;;;;;;;2.27;77.12;94686.38;5098678;27;20043;-49
2022/03/03 10:42:20;;;;;;;15.90;7.72;;;;;;;2.22;77.50;94675.84;5104281;27;20655;-49
2022/03/03 10:45:03;;;;;;;18.63;9.63;;;;;;;2.26;76.70;94680.41;5110734;27;20055;-48
2022/03/03 10:47:30;;;;;;;9.70;5.80;;;;;;;2.18;77.25;94672.03;5108492;27;20048;-48
2022/03/03 10:49:59;;;;;;;13.65;7.00;;;;;;;2.35;76.96;94673.38;5105040;27;20424;-47
2022/03/03 10:52:29;;;;;;;15.32;7.80;;;;;;;2.54;76.75;94666.03;5106755;27;20050;-48
2022/03/03 10:55:00;;;;;;;11.93;6.80;;;;;;;2.60;75.41;94660.94;5106756;27;20055;-48
2022/03/03 10:57:45;;;;;;;12.45;6.63;;;;;;;2.66;75.80;94670.47;5109119;27;20042;-50
2022/03/03 11:00:18;;;;;;;14.18;6.85;;;;;;;2.73;76.07;94673.13;5089096;27;21588;-49
2022/03/03 11:02:50;;;;;;;25.90;10.98;;;;;;;2.74;76.00;94667.00;5107438;27;20048;-51
2022/03/03 11:05:19;;;;;;;17.98;9.35;;;;;;;2.70;74.77;94665.75;5105313;27;20118;-47
2022/03/03 11:07:48;;;;;;;10.43;6.45;;;;;;;2.67;75.00;94661.00;5107799;27;20044;-47
2022/03/03 11:10:17;;;;;;;18.67;7.72;;;;;;;2.75;75.81;94665.22;5101598;27;20032;-48
2022/03/03 11:12:45;;;;;;;22.25;10.20;;;;;;;2.85;74.64;94669.06;5102735;28;20040;-52
2022/03/03 11:15:14;;;;;;;16.05;9.48;;;;;;;2.86;73.12;94665.53;5101155;28;20048;-52
2022/03/03 11:17:42;;;;;;;16.13;8.27;;;;;;;2.86;74.26;94662.13;5101750;28;20051;-48
2022/03/03 11:20:11;;;;;;;17.10;8.23;;;;;;;2.96;74.62;94664.41;5107557;28;20032;-50
2022/03/03 11:22:39;;;;;;;14.32;8.23;;;;;;;3.02;74.72;94661.06;5107299;28;20108;-51
2022/03/03 11:25:09;;;;;;;18.30;9.93;;;;;;;3.04;74.01;94656.53;5104578;28;20734;-52
2022/03/03 11:27:38;;;;;;;18.73;7.78;;;;;;;3.07;72.80;94661.28;5108237;28;20070;-47